Time;durP1;ratioP1;P1;durP2;ratioP2;P2;SDS_P1;SDS_P2;PMS_P1;PMS_P2;Temp;Humidity;BMP_temperature;BMP_pressure;BME280_temperature;BME280_humidity;BME280_pressure;Samples;Min_cycle;Max_cycle;Signal;HPM_P1;HPM_P2
2022/07/20 00:01:31;;;;;;;;;25.00;22.50;;;;;29.10;66.00;101201.66;5128559;27;45184;-79
2022/07/20 00:03:57;;;;;;;;;24.50;22.75;;;;;29.03;65.25;101192.94;5119167;27;45390;-79
2022/07/20 00:06:22;;;;;;;;;21.25;19.75;;;;;28.97;65.39;101192.22;5119882;27;46189;-79
2022/07/20 00:11:32;;;;;;;;;22.00;18.75;;;;;28.84;66.07;101205.84;5119255;27;45351;-79
2022/07/20 00:14:03;;;;;;;;;21.00;19.75;;;;;28.85;65.92;101214.75;5119830;27;45498;-79
2022/07/20 00:16:32;;;;;;;;;21.00;18.00;;;;;28.90;66.39;101219.97;5119149;27;45359;-79
2022/07/20 00:18:58;;;;;;;;;24.75;22.00;;;;;28.90;66.67;101220.81;5119209;27;45357;-78
2022/07/20 00:21:24;;;;;;;;;23.50;22.25;;;;;28.89;68.86;101245.72;5101480;27;45230;-79
2022/07/20 00:23:50;;;;;;;;;22.25;18.75;;;;;28.82;70.14;101276.13;5119413;27;45569;-79
2022/07/20 00:26:16;;;;;;;;;25.00;23.25;;;;;28.71;71.66;101295.91;5119100;27;46035;-79
2022/07/20 00:28:42;;;;;;;;;25.50;24.00;;;;;28.60;71.35;101329.88;5139145;27;45327;-79
2022/07/20 00:31:08;;;;;;;;;25.75;25.75;;;;;28.45;72.59;101335.56;5139946;27;45408;-79
2022/07/20 00:33:33;;;;;;;;;25.00;22.25;;;;;28.36;74.48;101363.25;5121168;27;45413;-79
2022/07/20 00:35:59;;;;;;;;;25.25;25.00;;;;;28.28;75.46;101384.72;5139702;27;45946;-79
2022/07/20 00:38:25;;;;;;;;;23.75;22.25;;;;;28.19;76.86;101387.56;5140066;27;45425;-79
2022/07/20 00:40:50;;;;;;;;;25.25;23.25;;;;;28.10;77.79;101381.50;5121029;27;45325;-79
2022/07/20 00:43:16;;;;;;;;;24.00;22.25;;;;;28.02;80.30;101374.53;5140021;27;45223;-80
2022/07/20 00:45:42;;;;;;;;;27.50;24.75;;;;;28.03;81.76;101370.97;5139531;27;46196;-80
2022/07/20 00:48:08;;;;;;;;;26.00;25.50;;;;;27.92;81.41;101347.22;5139780;27;45276;-79
2022/07/20 00:50:33;;;;;;;;;26.50;24.50;;;;;27.87;83.01;101317.16;5139553;27;45325;-79
2022/07/20 00:53:02;;;;;;;;;30.00;26.25;;;;;27.85;86.81;101287.03;5120413;27;45505;-79
2022/07/20 00:55:28;;;;;;;;;30.00;27.00;;;;;27.81;88.70;101255.16;5139076;27;45289;-79
2022/07/20 00:57:54;;;;;;;;;35.50;30.00;;;;;27.75;93.24;101249.97;5139618;27;45453;-80
2022/07/20 01:00:20;;;;;;;;;33.00;29.50;;;;;27.70;95.82;101250.97;5139440;27;45422;-79
2022/07/20 01:02:46;;;;;;;;;41.00;35.00;;;;;27.67;99.55;101257.25;5120798;27;45443;-79
2022/07/20 01:05:14;;;;;;;;;42.00;35.25;;;;;27.63;100.00;101259.09;5139478;27;45944;-79
2022/07/20 01:07:44;;;;;;;;;49.25;38.75;;;;;27.60;100.00;101251.16;5129324;27;45343;-79
2022/07/20 01:10:12;;;;;;;;;51.50;42.00;;;;;27.55;100.00;101237.06;5118753;27;45254;-80
2022/07/20 01:12:38;;;;;;;;;48.25;39.25;;;;;27.51;100.00;101219.44;5100014;27;45618;-80
2022/07/20 01:15:06;;;;;;;;;52.00;43.50;;;;;27.45;100.00;101206.22;5128092;27;45412;-79
2022/07/20 01:17:32;;;;;;;;;49.75;41.00;;;;;27.34;100.00;101187.81;5137656;27;45861;-79
2022/07/20 01:19:57;;;;;;;;;50.00;42.00;;;;;27.28;100.00;101177.28;5127582;27;45407;-79
2022/07/20 01:22:23;;;;;;;;;49.75;40.50;;;;;27.22;100.00;101183.59;5119004;27;45425;-79
2022/07/20 01:24:48;;;;;;;;;50.50;43.00;;;;;27.25;100.00;101180.00;5118601;27;45921;-80
2022/07/20 01:27:14;;;;;;;;;49.75;42.50;;;;;27.29;100.00;101194.97;5118405;27;45307;-80
2022/07/20 01:29:40;;;;;;;;;50.25;41.25;;;;;27.31;100.00;101223.31;5118469;27;45367;-80
2022/07/20 01:32:05;;;;;;;;;51.75;43.50;;;;;27.34;100.00;101219.72;5119277;27;45286;-80
2022/07/20 01:34:31;;;;;;;;;51.50;41.75;;;;;27.44;100.00;101220.44;5101882;27;45395;-80
2022/07/20 01:36:56;;;;;;;;;52.00;43.25;;;;;27.64;100.00;101225.38;5120475;27;45246;-80
2022/07/20 01:39:22;;;;;;;;;50.00;42.00;;;;;27.70;100.00;101206.63;5139548;27;45229;-80
2022/07/20 01:41:52;;;;;;;;;41.75;36.00;;;;;27.60;100.00;101189.09;5139004;27;45530;-80
2022/07/20 01:44:21;;;;;;;;;54.50;45.25;;;;;27.53;100.00;101193.69;5138808;27;46195;-80
2022/07/20 01:46:51;;;;;;;;;55.00;44.25;;;;;27.35;100.00;101203.72;5121181;27;45363;-80
2022/07/20 01:49:18;;;;;;;;;51.75;42.00;;;;;27.22;100.00;101210.16;5118102;27;45279;-80
2022/07/20 01:51:44;;;;;;;;;58.50;46.00;;;;;27.12;100.00;101222.78;5127156;27;45472;-80
2022/07/20 01:54:11;;;;;;;;;59.25;46.00;;;;;27.05;100.00;101221.09;5138594;27;46581;-80
2022/07/20 01:56:39;;;;;;;;;56.50;46.00;;;;;26.98;100.00;101212.38;5138448;27;45262;-80
2022/07/20 01:59:05;;;;;;;;;55.00;45.75;;;;;26.96;100.00;101221.25;5138707;27;45289;-80
2022/07/20 02:01:30;;;;;;;;;57.25;46.00;;;;;26.96;100.00;101245.19;5138573;27;45459;-80
2022/07/20 02:03:56;;;;;;;;;61.25;47.50;;;;;26.90;100.00;101259.44;5136810;27;45422;-80
2022/07/20 02:06:22;;;;;;;;;58.00;46.75;;;;;26.83;100.00;101285.25;5099477;27;45346;-80
2022/07/20 02:08:47;;;;;;;;;56.75;44.25;;;;;26.79;100.00;101318.06;5117602;27;45368;-80
2022/07/20 02:11:13;;;;;;;;;58.25;46.50;;;;;26.78;100.00;101340.22;5117909;27;45387;-80
2022/07/20 02:13:38;;;;;;;;;59.00;47.50;;;;;26.71;100.00;101358.00;5117274;27;46310;-80
2022/07/20 02:16:16;;;;;;;;;59.00;47.75;;;;;26.65;100.00;101341.25;5099067;27;45427;-80
2022/07/20 02:18:50;;;;;;;;;58.75;45.00;;;;;26.67;100.00;101289.00;5132914;27;45468;-80
2022/07/20 02:21:17;;;;;;;;;57.50;47.00;;;;;26.70;100.00;101289.81;5138764;27;45295;-80
2022/07/20 02:23:43;;;;;;;;;59.00;46.75;;;;;26.72;100.00;101316.38;5137842;27;46110;-80
2022/07/20 02:26:09;;;;;;;;;58.75;46.00;;;;;26.68;100.00;101312.00;5138232;27;45861;-80
2022/07/20 02:28:35;;;;;;;;;58.25;47.25;;;;;26.67;100.00;101321.72;5137416;27;45234;-80
2022/07/20 02:31:01;;;;;;;;;62.50;48.75;;;;;26.61;100.00;101329.81;5138422;27;45568;-80
2022/07/20 02:33:27;;;;;;;;;58.25;47.50;;;;;26.63;100.00;101322.69;5119122;27;46670;-79
2022/07/20 02:35:53;;;;;;;;;58.50;47.25;;;;;26.54;100.00;101325.50;5138528;27;45279;-80
2022/07/20 02:38:18;;;;;;;;;55.25;46.00;;;;;26.49;100.00;101343.25;5135408;27;45450;-80
2022/07/20 02:40:44;;;;;;;;;57.25;45.50;;;;;26.46;100.00;101349.47;5098903;27;45484;-80
2022/07/20 02:43:10;;;;;;;;;62.75;47.25;;;;;26.44;100.00;101345.09;5117147;27;45363;-80
2022/07/20 02:45:35;;;;;;;;;57.50;46.25;;;;;26.39;100.00;101338.06;5123464;27;45323;-80
2022/07/20 02:48:04;;;;;;;;;53.75;43.25;;;;;26.35;100.00;101333.66;5119407;27;45271;-80
2022/07/20 02:50:31;;;;;;;;;60.25;47.25;;;;;26.28;100.00;101350.59;5119288;27;45581;-80
2022/07/20 02:52:56;;;;;;;;;61.00;47.00;;;;;26.26;100.00;101360.34;5137931;27;46398;-80
2022/07/20 02:55:22;;;;;;;;;58.75;46.50;;;;;26.20;100.00;101361.28;5137315;27;45345;-79
2022/07/20 02:57:48;;;;;;;;;57.75;46.50;;;;;26.21;100.00;101376.31;5131016;27;45281;-80
2022/07/20 03:00:13;;;;;;;;;56.25;45.75;;;;;26.19;100.00;101385.19;5117328;27;45511;-80
2022/07/20 03:02:40;;;;;;;;;63.25;46.25;;;;;26.17;100.00;101393.19;5098085;27;45790;-80
2022/07/20 03:05:06;;;;;;;;;55.25;45.00;;;;;26.14;100.00;101413.56;5116924;27;45281;-80
2022/07/20 03:07:31;;;;;;;;;58.75;46.00;;;;;26.11;100.00;101431.28;5116999;27;45285;-80
2022/07/20 03:09:57;;;;;;;;;53.00;43.50;;;;;26.09;100.00;101438.38;5117198;27;45510;-77
2022/07/20 03:12:23;;;;;;;;;57.50;46.50;;;;;26.04;100.00;101428.69;5116986;27;45691;-80
2022/07/20 03:14:48;;;;;;;;;61.00;49.25;;;;;26.03;100.00;101441.03;5130362;27;45337;-80
2022/07/20 03:17:14;;;;;;;;;53.75;45.00;;;;;26.02;100.00;101454.34;5137959;27;45367;-79
2022/07/20 03:19:39;;;;;;;;;58.25;46.75;;;;;26.03;100.00;101449.00;5137512;27;45626;-78
2022/07/20 03:22:05;;;;;;;;;60.00;47.25;;;;;26.03;100.00;101470.22;5138072;27;45734;-78
2022/07/20 03:24:31;;;;;;;;;59.50;47.50;;;;;26.03;100.00;101466.72;5120058;27;45359;-78
2022/07/20 03:26:56;;;;;;;;;55.50;45.50;;;;;26.04;100.00;101447.25;5140043;27;45270;-78
2022/07/20 03:29:22;;;;;;;;;61.00;47.50;;;;;26.05;100.00;101435.75;5139189;27;45385;-78
2022/07/20 03:31:48;;;;;;;;;59.00;47.75;;;;;26.01;100.00;101440.22;5137165;27;46292;-78
2022/07/20 03:34:13;;;;;;;;;58.75;47.00;;;;;26.00;100.00;101441.09;5137220;27;45443;-78
2022/07/20 03:36:39;;;;;;;;;61.50;47.25;;;;;25.98;100.00;101434.03;5118767;27;45358;-77
2022/07/20 03:39:04;;;;;;;;;56.00;44.50;;;;;25.94;100.00;101439.38;5137668;27;45624;-78
2022/07/20 03:41:30;;;;;;;;;58.25;46.75;;;;;25.92;100.00;101429.66;5140575;27;45414;-78
2022/07/20 03:43:55;;;;;;;;;54.00;43.75;;;;;25.92;100.00;101449.13;5138425;27;45409;-78
2022/07/20 03:46:21;;;;;;;;;60.75;48.00;;;;;25.91;100.00;101451.81;5101606;27;45365;-78
2022/07/20 03:48:47;;;;;;;;;60.75;47.75;;;;;25.90;100.00;101434.13;5120172;27;45978;-78
2022/07/20 03:51:12;;;;;;;;;55.75;45.00;;;;;25.91;100.00;101443.84;5119748;27;46047;-77
2022/07/20 03:53:38;;;;;;;;;60.25;47.00;;;;;25.92;100.00;101461.50;5119481;27;45347;-78
2022/07/20 03:56:04;;;;;;;;;57.25;47.00;;;;;25.92;100.00;101473.00;5119819;27;45382;-78
2022/07/20 03:58:29;;;;;;;;;53.50;41.50;;;;;25.90;100.00;101482.75;5119844;27;45201;-78
2022/07/20 04:00:55;;;;;;;;;62.00;48.25;;;;;25.86;100.00;101488.09;5119846;27;46017;-77
2022/07/20 04:03:21;;;;;;;;;58.25;46.00;;;;;25.78;100.00;101502.31;5119659;27;45368;-78
2022/07/20 04:05:47;;;;;;;;;56.50;45.50;;;;;25.73;100.00;101519.13;5119674;27;45357;-77
2022/07/20 04:08:13;;;;;;;;;50.00;41.75;;;;;25.72;100.00;101512.06;5119993;27;45650;-79
2022/07/20 04:10:38;;;;;;;;;49.00;40.75;;;;;25.75;100.00;101499.66;5119406;27;46192;-79
2022/07/20 04:13:05;;;;;;;;;53.25;42.50;;;;;25.80;100.00;101495.22;5128504;27;45351;-79
2022/07/20 04:15:31;;;;;;;;;53.75;42.75;;;;;25.83;100.00;101477.50;5140150;27;45266;-79
2022/07/20 04:17:57;;;;;;;;;49.25;41.50;;;;;25.86;100.00;101469.50;5122255;27;45338;-79
2022/07/20 04:20:22;;;;;;;;;50.50;40.75;;;;;25.89;100.00;101466.84;5140336;27;45461;-79
2022/07/20 04:22:48;;;;;;;;;49.25;40.25;;;;;25.89;100.00;101453.59;5139840;27;45279;-79
2022/07/20 04:25:14;;;;;;;;;48.50;38.00;;;;;25.92;100.00;101458.84;5140235;27;45308;-79
2022/07/20 04:27:40;;;;;;;;;46.25;37.75;;;;;25.99;100.00;101472.94;5126102;27;45540;-79
2022/07/20 04:30:06;;;;;;;;;39.50;34.25;;;;;26.01;100.00;101453.47;5118999;27;45445;-79
2022/07/20 04:32:32;;;;;;;;;33.75;30.25;;;;;25.96;100.00;101419.03;5119090;27;45374;-79
2022/07/20 04:34:57;;;;;;;;;29.25;28.25;;;;;25.93;100.00;101416.41;5130605;27;45329;-79
2022/07/20 04:37:23;;;;;;;;;30.00;29.50;;;;;25.90;99.26;101405.81;5140730;27;45330;-79
2022/07/20 04:39:49;;;;;;;;;26.50;25.50;;;;;25.84;97.03;101389.06;5139528;27;45948;-78
2022/07/20 04:42:14;;;;;;;;;25.50;25.50;;;;;25.83;97.01;101395.25;5121343;27;45284;-78
2022/07/20 04:44:40;;;;;;;;;26.25;24.50;;;;;25.78;95.55;101366.13;5119002;27;45366;-79
2022/07/20 04:47:06;;;;;;;;;24.75;23.75;;;;;25.76;96.32;101365.25;5119346;27;45258;-79
2022/07/20 04:49:31;;;;;;;;;28.50;26.25;;;;;25.74;97.46;101375.03;5100267;27;45831;-79
2022/07/20 04:51:57;;;;;;;;;28.50;25.00;;;;;25.79;99.23;101399.72;5118538;27;45334;-78
2022/07/20 04:54:22;;;;;;;;;27.75;26.00;;;;;25.80;100.00;101396.19;5119454;27;45314;-78
2022/07/20 04:56:49;;;;;;;;;26.00;24.00;;;;;25.77;99.77;101398.84;5118982;27;45611;-79
2022/07/20 04:59:15;;;;;;;;;22.25;20.50;;;;;25.74;100.00;101425.41;5118736;27;45382;-79
2022/07/20 05:01:40;;;;;;;;;27.75;27.75;;;;;25.75;100.00;101449.25;5118606;27;45232;-79
2022/07/20 05:04:07;;;;;;;;;33.50;26.00;;;;;25.75;100.00;101480.22;5118756;27;45519;-79
2022/07/20 05:06:32;;;;;;;;;22.75;21.75;;;;;25.73;100.00;101498.78;5100365;27;45403;-79
2022/07/20 05:08:58;;;;;;;;;29.50;25.25;;;;;25.72;100.00;101497.03;5118631;27;45393;-79
2022/07/20 05:11:26;;;;;;;;;27.50;23.50;;;;;25.65;95.08;101485.56;5118980;27;45302;-80
2022/07/20 05:13:52;;;;;;;;;25.75;25.75;;;;;25.59;95.16;101472.38;5100673;27;45416;-79
2022/07/20 05:16:18;;;;;;;;;27.75;22.00;;;;;25.58;94.04;101456.50;5118996;27;45571;-79
2022/07/20 05:18:44;;;;;;;;;27.00;24.00;;;;;25.53;94.97;101463.59;5130364;27;46449;-80
2022/07/20 05:21:09;;;;;;;;;26.00;20.75;;;;;25.44;94.87;101451.25;5139334;27;45348;-79
2022/07/20 05:23:35;;;;;;;;;25.25;22.50;;;;;25.33;97.51;101453.97;5138592;27;45296;-78
2022/07/20 05:26:02;;;;;;;;;29.50;24.50;;;;;25.32;98.89;101468.09;5118806;27;45451;-79
2022/07/20 05:28:27;;;;;;;;;29.00;26.75;;;;;25.23;99.39;101441.66;5131003;27;45420;-79
2022/07/20 05:30:53;;;;;;;;;27.50;26.25;;;;;25.19;100.00;101427.56;5139306;27;45289;-79
2022/07/20 05:33:19;;;;;;;;;24.25;22.00;;;;;25.19;100.00;101395.75;5139263;27;45318;-80
2022/07/20 05:35:45;;;;;;;;;22.50;22.00;;;;;25.18;100.00;101365.72;5139153;27;45397;-79
2022/07/20 05:38:11;;;;;;;;;24.75;23.25;;;;;25.15;100.00;101348.97;5139116;27;45355;-79
2022/07/20 05:40:37;;;;;;;;;26.00;24.25;;;;;25.16;100.00;101345.41;5138982;27;45867;-79
2022/07/20 05:43:02;;;;;;;;;30.00;27.50;;;;;25.16;100.00;101387.81;5139254;27;45176;-79
2022/07/20 05:45:28;;;;;;;;;26.50;24.00;;;;;25.14;100.00;101411.69;5139233;27;45234;-79
2022/07/20 05:47:53;;;;;;;;;32.00;28.50;;;;;25.18;100.00;101423.13;5120501;27;45330;-79
2022/07/20 05:50:19;;;;;;;;;28.25;26.25;;;;;25.18;100.00;101425.78;5137332;27;45619;-78
2022/07/20 05:52:44;;;;;;;;;31.00;27.25;;;;;25.21;100.00;101432.84;5127784;27;45242;-77
2022/07/20 05:55:10;;;;;;;;;29.75;26.50;;;;;25.22;100.00;101431.94;5129156;27;45275;-78
2022/07/20 05:57:37;;;;;;;;;26.75;24.25;;;;;25.25;100.00;101443.41;5138514;27;46204;-78
2022/07/20 06:00:04;;;;;;;;;30.25;27.25;;;;;25.28;100.00;101430.16;5137229;27;46000;-80
2022/07/20 06:02:29;;;;;;;;;24.75;23.25;;;;;25.30;100.00;101438.06;5128057;27;45516;-80
2022/07/20 06:04:55;;;;;;;;;25.50;24.75;;;;;25.30;100.00;101444.28;5131293;27;45522;-79
2022/07/20 06:07:20;;;;;;;;;32.75;30.25;;;;;25.32;100.00;101438.94;5135040;27;46065;-79
2022/07/20 06:09:46;;;;;;;;;29.25;27.50;;;;;25.28;99.61;101439.84;5121013;27;45547;-80
2022/07/20 06:12:12;;;;;;;;;28.25;27.25;;;;;25.22;97.73;101447.84;5101826;27;45541;-84
2022/07/20 06:14:37;;;;;;;;;28.00;25.75;;;;;25.27;96.34;101451.38;5100199;27;45224;-83
2022/07/20 06:17:03;;;;;;;;;28.00;27.50;;;;;25.35;97.43;101431.84;5118300;27;46398;-84
2022/07/20 06:19:28;;;;;;;;;31.25;29.00;;;;;25.41;97.26;101433.63;5118643;27;45321;-83
2022/07/20 06:21:54;;;;;;;;;31.25;27.50;;;;;25.46;93.16;101434.47;5129553;27;45353;-84
2022/07/20 06:24:21;;;;;;;;;30.50;25.50;;;;;25.47;92.02;101452.16;5118262;27;45303;-83
2022/07/20 06:26:47;;;;;;;;;26.25;24.00;;;;;25.45;92.05;101460.97;5120815;27;46242;-81
2022/07/20 06:29:14;;;;;;;;;24.00;23.00;;;;;25.38;93.60;101483.09;5119180;27;45509;-78
2022/07/20 06:31:39;;;;;;;;;25.00;24.75;;;;;25.32;94.22;101497.25;5122862;27;45305;-81
2022/07/20 06:34:06;;;;;;;;;28.25;27.00;;;;;25.26;94.47;101510.56;5126120;27;45416;-80
2022/07/20 06:36:32;;;;;;;;;26.50;23.75;;;;;25.19;95.54;101513.22;5111443;27;48161;-81
2022/07/20 06:38:58;;;;;;;;;24.00;22.25;;;;;25.13;96.16;101522.97;5119833;27;46098;-81
2022/07/20 06:41:23;;;;;;;;;27.00;23.50;;;;;25.06;97.39;101518.59;5138489;27;45272;-81
2022/07/20 06:43:49;;;;;;;;;24.50;23.00;;;;;24.99;97.40;101505.38;5138158;27;45243;-83
2022/07/20 06:46:14;;;;;;;;;26.50;23.50;;;;;24.93;100.00;101499.22;5130253;27;45876;-81
2022/07/20 06:48:40;;;;;;;;;26.00;24.25;;;;;24.80;100.00;101507.22;5129523;27;45297;-84
2022/07/20 06:51:06;;;;;;;;;25.00;24.00;;;;;24.71;100.00;101500.16;5129553;27;46957;-84
2022/07/20 06:53:32;;;;;;;;;23.00;20.75;;;;;24.69;100.00;101494.00;5142778;27;45301;-83
2022/07/20 06:55:57;;;;;;;;;18.75;17.50;;;;;24.68;100.00;101478.97;5137744;27;46118;-83
2022/07/20 06:58:23;;;;;;;;;27.00;22.50;;;;;24.75;100.00;101486.94;5138781;27;45299;-85
2022/07/20 07:00:49;;;;;;;;;28.00;25.00;;;;;24.72;100.00;101490.47;5139952;27;45243;-83
2022/07/20 07:03:15;;;;;;;;;20.50;20.25;;;;;24.65;100.00;101473.69;5137226;27;45446;-82
2022/07/20 07:05:40;;;;;;;;;21.25;18.50;;;;;24.64;99.34;101457.78;5137969;27;45574;-82
2022/07/20 07:08:06;;;;;;;;;28.50;27.50;;;;;24.57;100.00;101460.47;5138607;27;45337;-84
2022/07/20 07:10:31;;;;;;;;;23.75;22.25;;;;;24.48;100.00;101483.44;5137890;27;45292;-82
2022/07/20 07:12:57;;;;;;;;;22.00;20.00;;;;;24.37;100.00;101496.69;5138207;27;45363;-80
2022/07/20 07:15:22;;;;;;;;;23.00;20.00;;;;;24.32;100.00;101499.34;5123218;27;45907;-84
2022/07/20 07:17:48;;;;;;;;;21.75;21.75;;;;;24.33;100.00;101482.59;5144163;27;45324;-91
2022/07/20 07:20:14;;;;;;;;;21.00;15.50;;;;;24.30;100.00;101484.38;5130930;27;45376;-85
2022/07/20 07:22:39;;;;;;;;;26.25;22.75;;;;;24.29;100.00;101512.59;5144724;27;45554;-83
2022/07/20 07:25:06;;;;;;;;;27.75;24.75;;;;;24.31;100.00;101521.41;5143129;27;46514;-86
2022/07/20 07:27:31;;;;;;;;;29.50;24.75;;;;;24.33;100.00;101524.03;5143113;27;45944;-82
2022/07/20 07:29:57;;;;;;;;;25.00;22.25;;;;;24.32;100.00;101501.09;5143935;27;45274;-87
2022/07/20 07:32:22;;;;;;;;;26.75;23.00;;;;;24.42;100.00;101487.88;5124087;27;45590;-86
2022/07/20 07:34:48;;;;;;;;;22.75;21.00;;;;;24.40;100.00;101496.69;5140873;27;45961;-80
2022/07/20 07:37:14;;;;;;;;;24.00;22.50;;;;;24.37;100.00;101491.41;5122160;27;45358;-79
2022/07/20 07:39:39;;;;;;;;;25.25;24.00;;;;;24.41;100.00;101512.56;5122054;27;45267;-82
2022/07/20 07:42:05;;;;;;;;;26.50;24.50;;;;;24.36;100.00;101505.53;5143209;27;45544;-77
2022/07/20 07:44:31;;;;;;;;;24.75;24.25;;;;;24.32;100.00;101538.16;5125032;27;45407;-80
2022/07/20 07:46:56;;;;;;;;;25.25;23.75;;;;;24.22;100.00;101561.09;5143283;27;45174;-84
2022/07/20 07:49:22;;;;;;;;;24.00;21.00;;;;;24.08;100.00;101559.34;5145246;27;45270;-82
2022/07/20 07:51:47;;;;;;;;;22.75;22.75;;;;;23.92;100.00;101568.09;5140822;27;45319;-79
2022/07/20 07:54:13;;;;;;;;;27.25;23.75;;;;;23.88;100.00;101566.34;5140857;27;46160;-80
2022/07/20 07:56:41;;;;;;;;;23.75;21.75;;;;;23.76;100.00;101568.06;5143113;27;45264;-84
2022/07/20 07:59:07;;;;;;;;;25.75;23.00;;;;;23.74;100.00;101566.31;5144594;27;45371;-81
2022/07/20 08:01:34;;;;;;;;;26.50;25.75;;;;;23.78;100.00;101568.97;5145439;27;45468;-86
2022/07/20 08:04:01;;;;;;;;;26.25;25.00;;;;;23.80;100.00;101567.22;5144041;27;45371;-86
2022/07/20 08:06:27;;;;;;;;;26.25;21.25;;;;;23.75;100.00;101562.78;5145376;27;45753;-82
2022/07/20 08:08:53;;;;;;;;;28.75;25.25;;;;;23.74;100.00;101559.25;5144277;27;45293;-88
2022/07/20 08:11:18;;;;;;;;;27.25;22.25;;;;;23.72;100.00;101554.84;5149750;27;45199;-89
2022/07/20 08:13:44;;;;;;;;;25.00;23.50;;;;;23.70;100.00;101554.84;5148725;27;46544;-89
2022/07/20 08:16:10;;;;;;;;;24.50;24.00;;;;;23.83;100.00;101570.72;5143799;27;45278;-92
2022/07/20 08:18:35;;;;;;;;;22.75;22.00;;;;;23.88;100.00;101564.56;5145284;27;45191;-91
2022/07/20 08:21:01;;;;;;;;;22.00;21.50;;;;;23.98;100.00;101575.19;5141737;27;45620;-80
2022/07/20 08:23:26;;;;;;;;;26.25;25.25;;;;;24.14;100.00;101581.38;5139757;27;45550;-77
2022/07/20 08:25:52;;;;;;;;;22.50;21.50;;;;;24.26;100.00;101578.72;5139684;27;45333;-78
2022/07/20 08:28:20;;;;;;;;;18.00;18.00;;;;;24.39;100.00;101584.94;5140224;27;45421;-79
2022/07/20 08:30:48;;;;;;;;;22.50;21.25;;;;;24.45;100.00;101584.91;5139864;27;45261;-77
2022/07/20 08:33:14;;;;;;;;;19.00;18.25;;;;;24.48;100.00;101569.03;5139671;27;45251;-79
2022/07/20 08:35:40;;;;;;;;;20.00;20.00;;;;;24.52;100.00;101569.91;5120917;27;45297;-79
2022/07/20 08:38:06;;;;;;;;;19.00;14.00;;;;;24.60;100.00;101567.25;5140169;27;45319;-79
2022/07/20 08:40:33;;;;;;;;;22.50;20.25;;;;;24.66;100.00;101581.38;5140110;27;45392;-79
2022/07/20 08:42:59;;;;;;;;;19.00;17.75;;;;;24.68;100.00;101574.31;5139767;27;46187;-79
2022/07/20 08:45:26;;;;;;;;;22.50;20.25;;;;;24.75;99.45;101571.69;5122595;27;45897;-79
2022/07/20 08:47:52;;;;;;;;;20.50;19.50;;;;;24.81;98.97;101571.66;5140423;27;45360;-79
2022/07/20 08:50:25;;;;;;;;;20.75;20.25;;;;;24.88;98.51;101584.88;5144888;27;45522;-78
2022/07/20 08:52:52;;;;;;;;;18.50;17.25;;;;;24.88;96.89;101594.59;5140220;27;46076;-79
2022/07/20 08:55:19;;;;;;;;;18.50;18.50;;;;;24.83;95.33;101585.78;5145487;27;45658;-78
2022/07/20 08:57:44;;;;;;;;;16.75;15.00;;;;;24.80;93.94;101586.66;5123502;27;45264;-79
2022/07/20 09:00:11;;;;;;;;;20.25;17.00;;;;;24.72;93.85;101594.63;5140161;27;45286;-78
2022/07/20 09:02:55;;;;;;;;;14.25;13.25;;;;;24.61;93.12;101601.66;5139944;27;46473;-77
2022/07/20 09:05:23;;;;;;;;;16.75;15.00;;;;;24.53;95.03;101590.22;5140294;27;45220;-77
2022/07/20 09:07:51;;;;;;;;;15.75;15.00;;;;;24.52;95.79;101583.16;5139052;27;45335;-79
2022/07/20 09:10:18;;;;;;;;;14.75;14.00;;;;;24.56;94.96;101566.38;5139625;27;45342;-79
2022/07/20 09:12:53;;;;;;;;;12.50;11.75;;;;;24.70;95.13;101577.84;5138798;27;45295;-80
2022/07/20 09:15:26;;;;;;;;;13.50;12.00;;;;;24.85;95.40;101587.53;5139327;27;45388;-79
2022/07/20 09:18:20;;;;;;;;;13.75;13.50;;;;;24.92;94.47;101577.78;5139713;27;45217;-80
2022/07/20 09:20:51;;;;;;;;;14.50;14.00;;;;;24.99;94.17;101558.38;5138835;27;45269;-81
2022/07/20 09:23:20;;;;;;;;;14.50;13.50;;;;;25.09;94.67;101564.50;5120348;27;46821;-78
2022/07/20 09:26:06;;;;;;;;;12.00;11.25;;;;;25.18;91.02;101571.53;5138995;27;45751;-79
2022/07/20 09:28:49;;;;;;;;;10.50;10.00;;;;;25.17;92.13;101583.03;5139024;27;45222;-79
2022/07/20 09:31:22;;;;;;;;;11.25;10.00;;;;;25.13;92.71;101582.16;5138981;27;45382;-82
2022/07/20 09:33:50;;;;;;;;;7.50;7.00;;;;;25.09;89.42;101579.53;5138482;27;46296;-79
2022/07/20 09:36:18;;;;;;;;;11.50;9.25;;;;;25.08;89.86;101575.13;5138417;27;45719;-79
2022/07/20 09:38:43;;;;;;;;;12.00;9.75;;;;;25.05;91.12;101583.97;5137952;27;45262;-78
2022/07/20 09:41:30;;;;;;;;;9.00;9.00;;;;;25.02;90.93;101562.78;5139054;27;45357;-78
2022/07/20 09:43:58;;;;;;;;;10.25;10.00;;;;;25.04;91.83;101576.91;5138941;27;45417;-78
2022/07/20 09:46:25;;;;;;;;;9.00;8.25;;;;;25.00;89.46;101575.13;5138896;27;45644;-77
2022/07/20 09:48:53;;;;;;;;;9.00;7.75;;;;;24.90;90.76;101576.91;5138532;27;45507;-79
2022/07/20 09:51:32;;;;;;;;;8.75;7.00;;;;;24.85;91.02;101587.53;5120296;27;45261;-81
2022/07/20 09:54:12;;;;;;;;;7.25;6.25;;;;;24.79;92.19;101598.16;5119880;27;46103;-79
2022/07/20 09:56:42;;;;;;;;;11.50;9.50;;;;;24.77;92.83;101599.91;5143460;27;45312;-80
2022/07/20 09:59:11;;;;;;;;;8.75;8.00;;;;;24.79;93.08;101606.09;5138587;27;45443;-78
2022/07/20 10:01:41;;;;;;;;;10.00;8.50;;;;;24.85;93.09;101592.81;5138995;27;45949;-78
2022/07/20 10:04:09;;;;;;;;;8.75;6.00;;;;;24.88;92.22;101586.66;5138436;27;45984;-77
2022/07/20 10:06:38;;;;;;;;;6.25;6.25;;;;;24.88;90.98;101584.88;5138111;27;45334;-77
2022/07/20 10:09:05;;;;;;;;;8.00;7.00;;;;;24.87;92.84;101587.53;5138352;27;45356;-78
2022/07/20 10:11:32;;;;;;;;;7.75;6.75;;;;;24.86;92.49;101588.44;5138628;27;45179;-77
2022/07/20 10:14:01;;;;;;;;;10.00;7.00;;;;;24.82;92.14;101592.84;5138202;27;46189;-78
2022/07/20 10:16:50;;;;;;;;;8.75;6.25;;;;;24.80;92.56;101589.31;5119351;27;45432;-77
2022/07/20 10:19:16;;;;;;;;;8.50;8.00;;;;;24.78;93.40;101588.44;5138202;27;45469;-78
2022/07/20 10:21:47;;;;;;;;;8.00;6.50;;;;;24.81;93.66;101595.47;5138314;27;45361;-78
2022/07/20 10:24:29;;;;;;;;;7.75;7.25;;;;;24.84;93.83;101587.53;5138010;27;45458;-77
2022/07/20 10:27:13;;;;;;;;;9.00;7.25;;;;;24.95;94.73;101595.44;5138081;27;45818;-78
2022/07/20 10:29:44;;;;;;;;;7.00;7.00;;;;;25.06;94.10;101600.72;5120190;27;45362;-79
2022/07/20 10:32:09;;;;;;;;;8.00;7.75;;;;;25.21;92.20;101597.16;5138246;27;45637;-80
2022/07/20 10:34:39;;;;;;;;;5.25;3.00;;;;;25.35;90.29;101592.69;5137710;27;45445;-79
2022/07/20 10:37:36;;;;;;;;;9.25;9.25;;;;;25.49;89.48;101584.69;5119256;27;45688;-79
2022/07/20 10:40:01;;;;;;;;;9.00;7.75;;;;;25.59;88.69;101589.06;5138156;27;45301;-80
2022/07/20 10:42:37;;;;;;;;;8.50;8.00;;;;;25.63;87.72;101597.88;5119509;27;45593;-79
2022/07/20 10:45:19;;;;;;;;;8.25;8.25;;;;;25.62;88.73;101597.00;5137587;27;45442;-80
2022/07/20 10:47:46;;;;;;;;;11.25;7.75;;;;;25.59;89.13;101601.44;5137667;27;45782;-80
2022/07/20 10:50:23;;;;;;;;;8.75;8.75;;;;;25.46;88.03;101598.84;5141942;27;45707;-80
2022/07/20 10:52:54;;;;;;;;;6.00;6.00;;;;;25.37;88.13;101603.25;5141886;27;45428;-80
2022/07/20 10:55:51;;;;;;;;;9.75;7.00;;;;;25.29;88.58;101608.59;5141537;27;45319;-78
2022/07/20 10:58:18;;;;;;;;;7.00;7.00;;;;;25.18;88.67;101606.00;5112994;27;45835;-80
2022/07/20 11:00:51;;;;;;;;;7.25;7.00;;;;;25.12;89.95;101606.00;5141417;27;45199;-79
2022/07/20 11:03:27;;;;;;;;;7.00;7.00;;;;;25.10;90.16;101608.66;5141596;27;45277;-79
2022/07/20 11:06:12;;;;;;;;;8.50;7.50;;;;;25.12;90.25;101606.00;5141752;27;46221;-78
2022/07/20 11:08:48;;;;;;;;;8.00;8.00;;;;;25.14;91.04;101614.81;5140740;27;45886;-78
2022/07/20 11:11:19;;;;;;;;;8.50;7.25;;;;;25.18;90.21;101625.41;5141387;27;45241;-81